Woodsburgh, New York
Current Conditions -  °F | °C
As of 2:51 PM on Thursday 23 Oct 2014 (Local Time) from KJFK Reporting Station
Light Rain Light Rain  
Wind Chill: 52°   Ceiling: 2500
Heat Index: 52°   Visibility: 10mi
Dew Point: 46°   Wind: 22mph
Humidity: 80%   Direction: 340°NNW
Pressure: 29.68"   Gusts: 33mph
Location:  40.632°N, 73.7113°W
Report Text: KJFK 231851Z 34019G29KT 10SM -RA SCT019 BKN025 OVC046 11/08 A2968 RMK AO2 PK WND 35032/1820 RAE11B28 SLP049 P0000 T01110078
Loading
Personal Weather Stations






























Interactive Weather Map
Tropical Storm Tracking
New forecast layout! Learn more

10-Day Weather Forecast

Advertisements
Track Severe Weather on mobile